Time;durP1;ratioP1;P1;durP2;ratioP2;P2;SDS_P1;SDS_P2;PMS_P1;PMS_P2;Temp;Humidity;BMP_temperature;BMP_pressure;BME280_temperature;BME280_humidity;BME280_pressure;Samples;Min_cycle;Max_cycle;Signal;HPM_P1;HPM_P2
2021/10/28 00:14:25;;;;;;;12.87;9.57;;;;;;;;;;5017610;28;20457;-87
2021/10/28 00:16:56;;;;;;;15.00;10.17;;;;;;;;;;5022963;28;20957;-86
2021/10/28 00:19:26;;;;;;;14.73;9.90;;;;;;;;;;5019712;28;20478;-87
2021/10/28 00:21:54;;;;;;;11.77;9.90;;;;;;;;;;5027998;28;20587;-87
2021/10/28 00:24:23;;;;;;;12.43;9.30;;;;;;;;;;5030807;28;20473;-86
2021/10/28 00:26:51;;;;;;;13.83;9.47;;;;;;;;;;5031188;28;20461;-86
2021/10/28 00:29:21;;;;;;;12.97;9.47;;;;;;;;;;5021732;28;20552;-87
2021/10/28 00:31:51;;;;;;;13.37;8.40;;;;;;;;;;5026089;28;20876;-86
2021/10/28 00:34:19;;;;;;;12.20;8.73;;;;;;;;;;5016863;28;20488;-86
2021/10/28 00:36:49;;;;;;;12.87;8.37;;;;;;;;;;5019799;28;20491;-86
2021/10/28 00:39:18;;;;;;;11.30;9.27;;;;;;;;;;5030026;28;20508;-87
2021/10/28 00:41:46;;;;;;;16.90;10.30;;;;;;;;;;5025682;28;20479;-87
2021/10/28 00:44:49;;;;;;;16.57;8.50;;;;;;;;;;5029336;28;20468;-87
2021/10/28 00:47:19;;;;;;;12.93;8.63;;;;;;;;;;5014768;28;20473;-87
2021/10/28 00:49:48;;;;;;;11.60;9.57;;;;;;;;;;5026129;28;20477;-87
2021/10/28 00:52:16;;;;;;;11.07;9.23;;;;;;;;;;5023650;28;20466;-87
2021/10/28 00:54:44;;;;;;;10.67;8.30;;;;;;;;;;5030032;28;20469;-87
2021/10/28 00:57:13;;;;;;;14.10;9.00;;;;;;;;;;5029886;28;20489;-87
2021/10/28 00:59:42;;;;;;;9.73;8.10;;;;;;;;;;5028215;28;20470;-87
2021/10/28 01:02:11;;;;;;;9.27;7.23;;;;;;;;;;5022988;28;20469;-86
2021/10/28 01:04:41;;;;;;;11.23;8.43;;;;;;;;;;5026487;28;20530;-86
2021/10/28 01:07:10;;;;;;;12.13;9.30;;;;;;;;;;5023980;28;20975;-87
2021/10/28 01:09:38;;;;;;;13.63;8.30;;;;;;;;;;5021071;28;20516;-87
2021/10/28 01:12:07;;;;;;;10.70;8.40;;;;;;;;;;5024518;28;20469;-87
2021/10/28 01:14:41;;;;;;;13.73;9.07;;;;;;;;;;5026501;28;21002;-86
2021/10/28 01:17:10;;;;;;;10.80;8.53;;;;;;;;;;5024551;28;20853;-87
2021/10/28 01:19:38;;;;;;;12.63;9.00;;;;;;;;;;5015583;28;20474;-87
2021/10/28 01:22:08;;;;;;;12.43;7.90;;;;;;;;;;5032750;28;20473;-87
2021/10/28 01:24:36;;;;;;;11.77;8.47;;;;;;;;;;5030126;28;20474;-87
2021/10/28 01:27:05;;;;;;;13.03;9.13;;;;;;;;;;5028364;28;20461;-87
2021/10/28 01:29:34;;;;;;;14.20;10.30;;;;;;;;;;5029602;28;20468;-86
2021/10/28 01:32:04;;;;;;;14.23;9.83;;;;;;;;;;5029421;28;20486;-88
2021/10/28 01:34:32;;;;;;;17.73;9.87;;;;;;;;;;5012347;28;20465;-87
2021/10/28 01:37:01;;;;;;;23.60;11.60;;;;;;;;;;5019160;28;20473;-88
2021/10/28 01:39:31;;;;;;;15.60;10.20;;;;;;;;;;5028506;28;20459;-86
2021/10/28 01:41:59;;;;;;;66.93;10.87;;;;;;;;;;5029468;28;20465;-87
2021/10/28 01:44:28;;;;;;;46.67;12.93;;;;;;;;;;5019939;28;20487;-86
2021/10/28 01:46:59;;;;;;;22.23;11.83;;;;;;;;;;5011433;28;20469;-88
2021/10/28 01:49:28;;;;;;;18.20;10.70;;;;;;;;;;5029059;28;20487;-87
2021/10/28 01:51:58;;;;;;;16.30;11.40;;;;;;;;;;5027029;28;20467;-87
2021/10/28 01:54:27;;;;;;;18.27;13.27;;;;;;;;;;5013655;28;20472;-86
2021/10/28 01:56:57;;;;;;;20.87;14.00;;;;;;;;;;5014099;28;20487;-86
2021/10/28 01:59:25;;;;;;;21.10;13.57;;;;;;;;;;5031944;28;20474;-90
2021/10/28 02:01:53;;;;;;;17.70;12.47;;;;;;;;;;5019273;28;20471;-87
2021/10/28 02:04:22;;;;;;;22.00;13.90;;;;;;;;;;5025967;28;20534;-86
2021/10/28 02:06:50;;;;;;;19.97;13.87;;;;;;;;;;5017990;28;21029;-87
2021/10/28 02:09:19;;;;;;;18.73;12.20;;;;;;;;;;5015313;28;20998;-86
2021/10/28 02:11:47;;;;;;;15.87;11.70;;;;;;;;;;5023212;28;20476;-88
2021/10/28 02:14:17;;;;;;;20.00;13.50;;;;;;;;;;5019576;28;20468;-87
2021/10/28 02:16:45;;;;;;;21.20;14.10;;;;;;;;;;5027085;28;20465;-87
2021/10/28 02:19:14;;;;;;;20.50;12.57;;;;;;;;;;5019977;28;20559;-87
2021/10/28 02:21:42;;;;;;;21.77;13.77;;;;;;;;;;5021482;28;20464;-87
2021/10/28 02:24:11;;;;;;;21.17;12.90;;;;;;;;;;5029692;28;20564;-87
2021/10/28 02:26:39;;;;;;;22.00;13.23;;;;;;;;;;5037037;28;20472;-86
2021/10/28 02:29:07;;;;;;;18.20;11.90;;;;;;;;;;5045772;28;20474;-86
2021/10/28 02:31:41;;;;;;;19.90;12.23;;;;;;;;;;5043570;28;20497;-86
2021/10/28 02:34:09;;;;;;;13.87;11.10;;;;;;;;;;5038298;28;20483;-87
2021/10/28 02:36:41;;;;;;;12.00;9.63;;;;;;;;;;5045555;28;20478;-87
2021/10/28 02:39:09;;;;;;;14.30;10.00;;;;;;;;;;5044055;28;20468;-87
2021/10/28 02:41:38;;;;;;;14.20;10.03;;;;;;;;;;5040717;28;20493;-86
2021/10/28 02:44:06;;;;;;;11.80;8.43;;;;;;;;;;5033710;28;20731;-87
2021/10/28 02:46:34;;;;;;;11.90;8.70;;;;;;;;;;5040449;28;20475;-88
2021/10/28 02:49:04;;;;;;;11.43;8.03;;;;;;;;;;5054659;28;20472;-88
2021/10/28 02:51:33;;;;;;;12.97;9.20;;;;;;;;;;5038829;28;21472;-87
2021/10/28 02:54:01;;;;;;;13.63;9.40;;;;;;;;;;5046599;28;20566;-86
2021/10/28 02:56:30;;;;;;;12.70;8.47;;;;;;;;;;5033104;28;20464;-86
2021/10/28 02:58:58;;;;;;;15.80;9.60;;;;;;;;;;5027991;28;20468;-86
2021/10/28 03:01:26;;;;;;;14.33;8.67;;;;;;;;;;5024169;28;20848;-86
2021/10/28 03:03:55;;;;;;;17.47;10.20;;;;;;;;;;5019159;28;20471;-86
2021/10/28 03:06:24;;;;;;;16.17;9.90;;;;;;;;;;5022958;28;20851;-86
2021/10/28 03:08:57;;;;;;;18.23;11.03;;;;;;;;;;5024709;28;20982;-86
2021/10/28 03:11:26;;;;;;;16.70;10.93;;;;;;;;;;5026242;28;20472;-87
2021/10/28 03:13:54;;;;;;;24.57;10.60;;;;;;;;;;5027358;28;20479;-87
2021/10/28 03:16:28;;;;;;;17.93;10.70;;;;;;;;;;5026076;28;20460;-86
2021/10/28 03:19:26;;;;;;;33.47;10.10;;;;;;;;;;5023033;28;20897;-86
2021/10/28 03:27:29;;;;;;;19.23;10.63;;;;;;;;;;5030859;28;20483;-87
2021/10/28 03:29:57;;;;;;;42.87;11.80;;;;;;;;;;5031276;28;20857;-87
2021/10/28 03:32:26;;;;;;;29.98;10.02;;;;;;;;;;5019727;28;20479;-87
2021/10/28 03:34:55;;;;;;;48.77;10.13;;;;;;;;;;5026631;28;20230;-86
2021/10/28 03:37:27;;;;;;;52.40;11.07;;;;;;;;;;5025857;28;20472;-86
2021/10/28 03:40:13;;;;;;;24.67;9.48;;;;;;;;;;5031290;28;20236;-86
2021/10/28 04:19:24;;;;;;;11.68;8.98;;;;;;;;;;4974460;28;20331;-87
2021/10/28 04:22:05;;;;;;;20.25;8.82;;;;;;;;;;5020526;28;20225;-86
2021/10/28 04:30:14;;;;;;;21.65;9.25;;;;;;;;;;5016234;28;20287;-87
2021/10/28 04:32:43;;;;;;;30.13;9.70;;;;;;;;;;5018852;28;20240;-86
2021/10/28 04:35:14;;;;;;;18.00;8.10;;;;;;;;;;5019186;28;20230;-86
2021/10/28 04:37:45;;;;;;;29.77;10.52;;;;;;;;;;5041046;28;20595;-86
2021/10/28 04:40:14;;;;;;;32.42;8.50;;;;;;;;;;5030444;28;20279;-86
2021/10/28 04:42:44;;;;;;;18.30;9.52;;;;;;;;;;5028443;28;20232;-86
2021/10/28 04:45:12;;;;;;;19.77;9.35;;;;;;;;;;5024675;28;20227;-87
2021/10/28 04:47:43;;;;;;;13.15;8.60;;;;;;;;;;5017855;28;20235;-87
2021/10/28 04:50:11;;;;;;;11.23;7.43;;;;;;;;;;5020061;28;20229;-86
2021/10/28 04:52:40;;;;;;;11.23;7.95;;;;;;;;;;5028406;28;20232;-86
2021/10/28 04:55:09;;;;;;;20.08;9.30;;;;;;;;;;5021772;28;20236;-86
2021/10/28 04:57:37;;;;;;;15.10;9.48;;;;;;;;;;5038091;28;20236;-86
2021/10/28 05:00:08;;;;;;;28.60;9.40;;;;;;;;;;5024012;28;20236;-86
2021/10/28 05:02:36;;;;;;;13.98;9.13;;;;;;;;;;5009046;28;20256;-86
2021/10/28 05:05:05;;;;;;;20.75;8.57;;;;;;;;;;5022658;28;20235;-86
2021/10/28 05:07:33;;;;;;;18.42;9.27;;;;;;;;;;5020325;28;20638;-86
2021/10/28 05:10:03;;;;;;;48.40;10.90;;;;;;;;;;5027385;28;20230;-86
2021/10/28 05:12:33;;;;;;;14.68;9.50;;;;;;;;;;5027681;28;20659;-87
2021/10/28 05:15:02;;;;;;;13.70;9.75;;;;;;;;;;5029640;28;20580;-86
2021/10/28 05:17:49;;;;;;;26.67;10.30;;;;;;;;;;5021151;28;20691;-87
2021/10/28 05:20:18;;;;;;;12.95;9.10;;;;;;;;;;5022594;28;20234;-86
2021/10/28 05:22:46;;;;;;;12.45;8.70;;;;;;;;;;5026832;28;20268;-86
2021/10/28 05:25:15;;;;;;;23.20;9.82;;;;;;;;;;5029148;28;20229;-86
2021/10/28 05:27:43;;;;;;;16.80;8.45;;;;;;;;;;5018387;28;20304;-87
2021/10/28 05:30:12;;;;;;;14.50;9.13;;;;;;;;;;5015190;28;20604;-86
2021/10/28 05:32:41;;;;;;;28.02;10.18;;;;;;;;;;5020742;28;20476;-86
2021/10/28 05:35:09;;;;;;;21.65;9.77;;;;;;;;;;5012818;28;20235;-86
2021/10/28 05:37:39;;;;;;;16.77;9.02;;;;;;;;;;5036318;28;20723;-86
2021/10/28 05:40:08;;;;;;;23.83;9.02;;;;;;;;;;5032033;28;20230;-86
2021/10/28 05:42:38;;;;;;;13.73;8.75;;;;;;;;;;5026744;28;20259;-86
2021/10/28 05:45:07;;;;;;;17.52;8.75;;;;;;;;;;5027412;28;20229;-86
2021/10/28 05:47:35;;;;;;;18.23;8.90;;;;;;;;;;5029333;28;20289;-86
2021/10/28 05:50:23;;;;;;;9.23;7.68;;;;;;;;;;5026880;28;20549;-86
2021/10/28 05:52:55;;;;;;;11.20;7.72;;;;;;;;;;5032248;28;20602;-86
2021/10/28 05:55:24;;;;;;;14.90;8.43;;;;;;;;;;5028211;28;20230;-86
2021/10/28 05:57:53;;;;;;;12.52;7.80;;;;;;;;;;5025768;28;20235;-86
2021/10/28 06:00:22;;;;;;;8.75;7.72;;;;;;;;;;5006218;28;20575;-86
2021/10/28 06:02:50;;;;;;;11.48;8.68;;;;;;;;;;5030680;28;20239;-86
2021/10/28 06:05:19;;;;;;;13.52;8.32;;;;;;;;;;5023031;28;20231;-86
2021/10/28 06:07:48;;;;;;;23.70;7.97;;;;;;;;;;5018462;28;20224;-86
2021/10/28 06:10:19;;;;;;;18.35;9.13;;;;;;;;;;5026053;28;20233;-86
2021/10/28 06:12:48;;;;;;;15.48;7.85;;;;;;;;;;5023875;28;20297;-86
2021/10/28 06:15:17;;;;;;;9.57;8.48;;;;;;;;;;5033513;28;20238;-86
2021/10/28 06:17:51;;;;;;;9.88;7.50;;;;;;;;;;5021023;28;20286;-86
2021/10/28 06:20:20;;;;;;;15.50;8.50;;;;;;;;;;5024458;28;20615;-86
2021/10/28 06:22:48;;;;;;;10.55;7.88;;;;;;;;;;5021358;28;20474;-85
2021/10/28 06:25:18;;;;;;;13.50;8.88;;;;;;;;;;5025076;28;20304;-85
2021/10/28 06:27:47;;;;;;;13.05;8.75;;;;;;;;;;5023943;28;20312;-85
2021/10/28 06:30:15;;;;;;;16.40;8.18;;;;;;;;;;5021113;28;20243;-84
2021/10/28 06:32:44;;;;;;;12.60;8.50;;;;;;;;;;5029877;28;20240;-85
2021/10/28 06:35:13;;;;;;;11.63;8.27;;;;;;;;;;5017545;28;20221;-84
2021/10/28 06:37:46;;;;;;;12.30;8.87;;;;;;;;;;5013260;28;20252;-85
2021/10/28 06:40:15;;;;;;;16.43;9.53;;;;;;;;;;5006853;28;20845;-85
2021/10/28 06:42:45;;;;;;;17.88;9.80;;;;;;;;;;5032145;28;20557;-84
2021/10/28 06:45:14;;;;;;;72.57;14.53;;;;;;;;;;5028487;28;20221;-85
2021/10/28 06:47:42;;;;;;;35.45;12.38;;;;;;;;;;5019159;28;20475;-85
2021/10/28 06:50:12;;;;;;;22.40;12.53;;;;;;;;;;5031125;28;20736;-84
2021/10/28 06:52:49;;;;;;;23.70;11.70;;;;;;;;;;5019754;28;20468;-84
2021/10/28 06:55:28;;;;;;;33.85;11.82;;;;;;;;;;5026613;28;20563;-84
2021/10/28 07:03:31;;;;;;;51.45;13.45;;;;;;;;;;5012235;28;21315;-86
2021/10/28 07:06:03;;;;;;;37.20;12.97;;;;;;;;;;5019748;28;20237;-85
2021/10/28 07:08:33;;;;;;;24.93;12.93;;;;;;;;;;5037094;28;20463;-88
2021/10/28 07:11:07;;;;;;;39.63;15.73;;;;;;;;;;5025724;28;20476;-86
2021/10/28 07:13:39;;;;;;;31.83;13.60;;;;;;;;;;5024377;28;20452;-88
2021/10/28 07:16:15;;;;;;;35.35;13.13;;;;;;;;;;5026570;28;20478;-86
2021/10/28 07:18:55;;;;;;;34.40;14.27;;;;;;;;;;5025986;28;20278;-88
2021/10/28 07:32:53;;;;;;;31.00;13.67;;;;;;;;;;5006985;28;21074;-88
2021/10/28 08:00:26;;;;;;;45.97;16.73;;;;;;;;;;4972023;28;20506;-88
2021/10/28 08:06:16;;;;;;;40.97;17.23;;;;;;;;;;4984775;28;20486;-88
2021/10/28 08:14:36;;;;;;;34.27;17.47;;;;;;;;;;5024197;28;20480;-89
2021/10/28 08:20:00;;;;;;;27.10;16.50;;;;;;;;;;5000740;28;20465;-88
2021/10/28 08:22:35;;;;;;;32.23;17.30;;;;;;;;;;5015976;28;20475;-88
2021/10/28 08:30:35;;;;;;;30.20;16.00;;;;;;;;;;5016167;28;20470;-89
2021/10/28 08:33:04;;;;;;;26.93;16.23;;;;;;;;;;5030327;28;20824;-88
2021/10/28 08:35:51;;;;;;;35.40;17.87;;;;;;;;;;4990277;28;20896;-87
2021/10/28 08:38:22;;;;;;;27.70;15.80;;;;;;;;;;4995789;28;20567;-87
2021/10/28 08:40:52;;;;;;;26.47;15.30;;;;;;;;;;5030762;28;21223;-88
2021/10/28 08:43:21;;;;;;;32.63;16.60;;;;;;;;;;5023079;28;20569;-88
2021/10/28 08:45:53;;;;;;;27.90;15.40;;;;;;;;;;4999366;28;20506;-88
2021/10/28 08:48:23;;;;;;;28.90;15.27;;;;;;;;;;4993825;28;20473;-88
2021/10/28 08:51:16;;;;;;;29.60;17.60;;;;;;;;;;5002762;28;20477;-88
2021/10/28 09:26:21;;;;;;;33.10;18.93;;;;;;;;;;4982815;28;20471;-87
2021/10/28 09:28:59;;;;;;;32.43;19.03;;;;;;;;;;4981244;28;21385;-87
2021/10/28 09:31:31;;;;;;;31.57;18.47;;;;;;;;;;4967179;28;20873;-87
2021/10/28 09:34:22;;;;;;;31.13;17.60;;;;;;;;;;4985332;28;20498;-87
2021/10/28 09:45:29;;;;;;;32.30;17.37;;;;;;;;;;4979089;28;20484;-88
2021/10/28 09:48:10;;;;;;;30.13;17.07;;;;;;;;;;4992017;28;20854;-88
2021/10/28 09:50:49;;;;;;;38.43;17.90;;;;;;;;;;4996682;28;20465;-88
2021/10/28 09:53:27;;;;;;;33.63;17.77;;;;;;;;;;5000282;28;20504;-88
2021/10/28 09:58:43;;;;;;;29.43;16.73;;;;;;;;;;5008996;28;21017;-88
2021/10/28 10:01:27;;;;;;;31.57;17.77;;;;;;;;;;4995211;28;20475;-88
2021/10/28 10:03:58;;;;;;;37.27;18.00;;;;;;;;;;4989764;28;20505;-87
2021/10/28 10:06:27;;;;;;;33.20;18.23;;;;;;;;;;5002752;28;20474;-88
2021/10/28 10:08:56;;;;;;;36.63;17.93;;;;;;;;;;5009035;28;20476;-87
2021/10/28 10:11:27;;;;;;;29.67;15.60;;;;;;;;;;4987856;28;20470;-88
2021/10/28 10:13:57;;;;;;;35.33;17.60;;;;;;;;;;4988219;28;20488;-88
2021/10/28 10:16:25;;;;;;;29.77;17.20;;;;;;;;;;5007353;28;20465;-87
2021/10/28 10:18:54;;;;;;;28.50;16.10;;;;;;;;;;4987613;28;20481;-88
2021/10/28 10:21:30;;;;;;;32.43;17.07;;;;;;;;;;4987519;28;20870;-88
2021/10/28 10:24:08;;;;;;;38.43;18.70;;;;;;;;;;4995361;28;20472;-88
2021/10/28 10:27:14;;;;;;;28.60;16.40;;;;;;;;;;5002983;28;20498;-88
2021/10/28 11:19:17;;;;;;;30.83;16.90;;;;;;;;;;4978398;28;20478;-87
2021/10/28 12:15:13;;;;;;;27.67;17.20;;;;;;;;;;4994904;28;20484;-87
2021/10/28 12:43:27;;;;;;;28.63;16.67;;;;;;;;;;4964497;28;21012;-87
2021/10/28 12:46:17;;;;;;;26.93;16.80;;;;;;;;;;4977578;28;20986;-87
2021/10/28 12:49:05;;;;;;;31.53;16.50;;;;;;;;;;4972225;28;20560;-87
2021/10/28 12:51:51;;;;;;;29.20;16.63;;;;;;;;;;4972775;28;20466;-88
2021/10/28 13:03:10;;;;;;;29.40;16.03;;;;;;;;;;4967898;28;21021;-87
2021/10/28 13:28:25;;;;;;;30.43;16.03;;;;;;;;;;4983312;28;20477;-88
2021/10/28 13:50:30;;;;;;;35.30;16.87;;;;;;;;;;5005865;28;20561;-88
2021/10/28 13:56:13;;;;;;;37.80;17.80;;;;;;;;;;4961956;28;20485;-88
2021/10/28 14:24:30;;;;;;;36.60;17.87;;;;;;;;;;5008315;28;20472;-88
2021/10/28 15:28:33;;;;;;;37.30;17.73;;;;;;;;;;4971816;28;20466;-88
2021/10/28 15:31:33;;;;;;;35.60;18.23;;;;;;;;;;5014976;28;20480;-88
2021/10/28 15:37:08;;;;;;;31.27;17.60;;;;;;;;;;4968696;28;20478;-88
2021/10/28 15:39:40;;;;;;;36.10;18.77;;;;;;;;;;5008549;28;20484;-88
2021/10/28 15:56:46;;;;;;;34.00;18.30;;;;;;;;;;4998483;28;20481;-88
2021/10/28 15:59:45;;;;;;;36.63;18.10;;;;;;;;;;5008587;28;20929;-88
2021/10/28 16:21:54;;;;;;;39.70;20.00;;;;;;;;;;5006170;28;20466;-88
2021/10/28 16:24:25;;;;;;;35.60;19.07;;;;;;;;;;5011747;28;20868;-88
2021/10/28 16:26:54;;;;;;;34.30;19.20;;;;;;;;;;5009150;28;20483;-87
2021/10/28 16:29:23;;;;;;;41.40;21.50;;;;;;;;;;4996026;28;20991;-88
2021/10/28 16:31:57;;;;;;;46.47;20.50;;;;;;;;;;5005289;28;21005;-88
2021/10/28 16:34:25;;;;;;;37.87;20.90;;;;;;;;;;5000885;28;20493;-88
2021/10/28 16:36:54;;;;;;;46.77;23.83;;;;;;;;;;4988790;28;20485;-88
2021/10/28 16:39:23;;;;;;;45.10;23.77;;;;;;;;;;5012662;28;20482;-88
2021/10/28 16:41:52;;;;;;;43.23;21.27;;;;;;;;;;4976888;28;20477;-89
2021/10/28 16:44:22;;;;;;;37.63;20.10;;;;;;;;;;4990756;28;20871;-88
2021/10/28 16:46:51;;;;;;;36.10;20.93;;;;;;;;;;4979751;28;20487;-88
2021/10/28 16:49:22;;;;;;;37.37;20.07;;;;;;;;;;4974739;28;20471;-88
2021/10/28 16:51:53;;;;;;;37.73;19.70;;;;;;;;;;4969019;28;20484;-87
2021/10/28 16:54:21;;;;;;;36.90;19.80;;;;;;;;;;4994863;28;20490;-88
2021/10/28 16:56:50;;;;;;;37.90;20.73;;;;;;;;;;4987715;28;21557;-88
2021/10/28 16:59:18;;;;;;;37.37;20.30;;;;;;;;;;4970643;28;20470;-88
2021/10/28 17:01:49;;;;;;;37.60;19.63;;;;;;;;;;4986083;28;20486;-88
2021/10/28 17:04:18;;;;;;;38.80;20.83;;;;;;;;;;4998197;28;20478;-89
2021/10/28 17:06:46;;;;;;;39.90;20.70;;;;;;;;;;4992003;28;20532;-88
2021/10/28 17:09:15;;;;;;;39.73;20.20;;;;;;;;;;4996595;28;20483;-89
2021/10/28 17:11:43;;;;;;;42.97;22.43;;;;;;;;;;5011785;28;20848;-88
2021/10/28 17:14:12;;;;;;;41.30;21.83;;;;;;;;;;5015080;28;20491;-89
2021/10/28 17:16:44;;;;;;;37.37;20.67;;;;;;;;;;4999795;28;20572;-86
2021/10/28 17:19:16;;;;;;;37.17;21.73;;;;;;;;;;5009836;28;20479;-86
2021/10/28 17:21:45;;;;;;;39.43;20.77;;;;;;;;;;4998683;28;20468;-86
2021/10/28 17:24:24;;;;;;;46.83;23.47;;;;;;;;;;4996497;28;20495;-87
2021/10/28 17:26:56;;;;;;;46.63;22.80;;;;;;;;;;5004638;28;20480;-86
2021/10/28 17:29:24;;;;;;;45.20;22.37;;;;;;;;;;5002645;28;20575;-87
2021/10/28 17:31:55;;;;;;;45.77;22.80;;;;;;;;;;5002109;28;20479;-87
2021/10/28 17:34:26;;;;;;;53.33;25.73;;;;;;;;;;4990800;28;20608;-87
2021/10/28 17:36:55;;;;;;;58.33;28.67;;;;;;;;;;5008217;28;20489;-84
2021/10/28 17:39:24;;;;;;;44.27;22.97;;;;;;;;;;5002401;28;20479;-87
2021/10/28 17:41:53;;;;;;;41.63;22.90;;;;;;;;;;4996891;28;20475;-87
2021/10/28 17:44:23;;;;;;;41.20;20.33;;;;;;;;;;5001043;28;20477;-87
2021/10/28 17:46:51;;;;;;;54.90;22.93;;;;;;;;;;4996297;28;20482;-86
2021/10/28 17:49:22;;;;;;;41.20;20.77;;;;;;;;;;5006431;28;20468;-87
2021/10/28 17:51:52;;;;;;;42.50;21.50;;;;;;;;;;4996867;28;21062;-86
2021/10/28 17:54:21;;;;;;;44.13;21.80;;;;;;;;;;5004297;28;20482;-87
2021/10/28 17:56:51;;;;;;;39.33;20.70;;;;;;;;;;5006878;28;20561;-86
2021/10/28 17:59:19;;;;;;;47.17;21.87;;;;;;;;;;5005358;28;20514;-86
2021/10/28 18:01:48;;;;;;;37.00;21.37;;;;;;;;;;4999777;28;20477;-87
2021/10/28 18:04:17;;;;;;;37.87;20.33;;;;;;;;;;5010759;28;20479;-86
2021/10/28 18:06:45;;;;;;;45.57;20.13;;;;;;;;;;5001105;28;20514;-86
2021/10/28 18:09:15;;;;;;;42.63;20.93;;;;;;;;;;5001062;28;20462;-86
2021/10/28 18:11:43;;;;;;;39.70;21.10;;;;;;;;;;4998510;28;20477;-87
2021/10/28 18:14:14;;;;;;;48.43;21.20;;;;;;;;;;4996631;28;20473;-87
2021/10/28 18:16:42;;;;;;;40.20;20.00;;;;;;;;;;4984932;28;20473;-86
2021/10/28 18:19:11;;;;;;;38.37;21.23;;;;;;;;;;5005644;28;20473;-86
2021/10/28 18:21:42;;;;;;;39.43;20.57;;;;;;;;;;5008009;28;20471;-86
2021/10/28 18:24:11;;;;;;;45.20;22.23;;;;;;;;;;5007275;28;20516;-87
2021/10/28 18:26:41;;;;;;;36.10;18.90;;;;;;;;;;5006203;28;20493;-87
2021/10/28 18:29:09;;;;;;;40.83;21.37;;;;;;;;;;5005228;28;21005;-87
2021/10/28 18:31:38;;;;;;;47.90;22.53;;;;;;;;;;5004835;28;20471;-87
2021/10/28 18:34:08;;;;;;;48.77;21.67;;;;;;;;;;5002156;28;20838;-86
2021/10/28 18:36:36;;;;;;;42.80;20.77;;;;;;;;;;4999892;28;20473;-82
2021/10/28 18:39:08;;;;;;;34.60;18.57;;;;;;;;;;5010615;28;20516;-87
2021/10/28 18:41:36;;;;;;;38.83;20.20;;;;;;;;;;5006613;28;20466;-86
2021/10/28 18:44:06;;;;;;;41.43;19.43;;;;;;;;;;5004095;28;20878;-88
2021/10/28 18:46:34;;;;;;;44.53;19.77;;;;;;;;;;4996396;28;20475;-87
2021/10/28 18:49:04;;;;;;;41.37;21.73;;;;;;;;;;4982129;28;20528;-86
2021/10/28 18:51:33;;;;;;;35.17;19.80;;;;;;;;;;4983230;28;20479;-88
2021/10/28 18:54:02;;;;;;;42.20;22.20;;;;;;;;;;4993322;28;20474;-87
2021/10/28 18:56:31;;;;;;;42.10;20.00;;;;;;;;;;4976538;28;20477;-87
2021/10/28 18:58:59;;;;;;;36.63;19.00;;;;;;;;;;4975865;28;20522;-88
2021/10/28 19:01:31;;;;;;;43.60;21.87;;;;;;;;;;4986015;28;20471;-87
2021/10/28 19:04:12;;;;;;;37.13;19.00;;;;;;;;;;4990704;28;20493;-87
2021/10/28 19:06:42;;;;;;;40.27;21.20;;;;;;;;;;4991166;28;20817;-87
2021/10/28 19:09:10;;;;;;;41.63;21.50;;;;;;;;;;4989706;28;21122;-87
2021/10/28 19:11:39;;;;;;;44.17;21.63;;;;;;;;;;4985680;28;20506;-87
2021/10/28 19:14:07;;;;;;;50.30;23.60;;;;;;;;;;4982699;28;20474;-87
2021/10/28 19:16:38;;;;;;;58.73;29.40;;;;;;;;;;4983117;28;20522;-87
2021/10/28 19:19:07;;;;;;;68.77;29.50;;;;;;;;;;4987543;28;20476;-87
2021/10/28 19:21:35;;;;;;;46.10;25.60;;;;;;;;;;4969775;28;20486;-87
2021/10/28 19:24:03;;;;;;;40.60;21.30;;;;;;;;;;4994595;28;20509;-87
2021/10/28 19:26:32;;;;;;;35.00;19.70;;;;;;;;;;4987902;28;20480;-87
2021/10/28 19:29:03;;;;;;;40.40;19.40;;;;;;;;;;4985318;28;20485;-87
2021/10/28 19:31:34;;;;;;;35.90;18.70;;;;;;;;;;5006278;28;20477;-87
2021/10/28 19:34:05;;;;;;;32.50;18.93;;;;;;;;;;5007631;28;20899;-87
2021/10/28 19:36:36;;;;;;;37.00;20.67;;;;;;;;;;5000982;28;20485;-82
2021/10/28 19:42:16;;;;;;;40.37;20.03;;;;;;;;;;4980587;28;20474;-88
2021/10/28 19:45:11;;;;;;;37.50;19.23;;;;;;;;;;4998943;28;20493;-87
2021/10/28 19:47:40;;;;;;;30.93;17.57;;;;;;;;;;5003069;28;20475;-87
2021/10/28 19:50:12;;;;;;;37.50;17.93;;;;;;;;;;4993409;28;20504;-88
2021/10/28 19:52:41;;;;;;;44.23;18.87;;;;;;;;;;5009465;28;20476;-88
2021/10/28 19:55:10;;;;;;;35.30;18.53;;;;;;;;;;4999001;28;20480;-87
2021/10/28 19:57:41;;;;;;;34.77;17.87;;;;;;;;;;5008330;28;20514;-88
2021/10/28 20:00:19;;;;;;;31.67;17.83;;;;;;;;;;5007585;28;20468;-87
2021/10/28 20:05:46;;;;;;;32.93;18.80;;;;;;;;;;5010127;28;20480;-87
2021/10/28 20:08:26;;;;;;;36.93;18.70;;;;;;;;;;5006000;28;20473;-87
2021/10/28 20:13:58;;;;;;;33.07;19.23;;;;;;;;;;5005828;28;20483;-87
2021/10/28 20:22:02;;;;;;;31.33;15.80;;;;;;;;;;4972401;28;20476;-88
2021/10/28 20:24:31;;;;;;;34.50;17.47;;;;;;;;;;5018713;28;20871;-87
2021/10/28 20:26:59;;;;;;;34.80;18.43;;;;;;;;;;5002112;28;21493;-88
2021/10/28 20:29:27;;;;;;;32.17;17.27;;;;;;;;;;5012073;28;20490;-87
2021/10/28 20:31:56;;;;;;;39.53;18.30;;;;;;;;;;5001568;28;20475;-87
2021/10/28 20:34:30;;;;;;;32.07;17.87;;;;;;;;;;5005817;28;20488;-87
2021/10/28 20:37:08;;;;;;;35.87;17.50;;;;;;;;;;4999253;28;20462;-87
2021/10/28 20:39:40;;;;;;;33.03;17.10;;;;;;;;;;5001031;28;20502;-87
2021/10/28 20:42:08;;;;;;;35.43;18.40;;;;;;;;;;4989874;28;20516;-87
2021/10/28 20:44:37;;;;;;;33.73;18.27;;;;;;;;;;4994069;28;20973;-87
2021/10/28 20:47:05;;;;;;;36.77;17.30;;;;;;;;;;5002769;28;20491;-87
2021/10/28 20:49:35;;;;;;;40.20;18.73;;;;;;;;;;4998447;28;20465;-87
2021/10/28 20:52:04;;;;;;;34.93;17.83;;;;;;;;;;5007771;28;20521;-87
2021/10/28 20:54:32;;;;;;;31.80;17.10;;;;;;;;;;5007686;28;20928;-87
2021/10/28 20:57:03;;;;;;;35.27;17.93;;;;;;;;;;5007016;28;21050;-88
2021/10/28 20:59:32;;;;;;;31.73;17.00;;;;;;;;;;4962140;28;20470;-87
2021/10/28 21:02:01;;;;;;;32.37;17.70;;;;;;;;;;4994762;28;20477;-87
2021/10/28 21:04:29;;;;;;;27.10;16.90;;;;;;;;;;4964671;28;20484;-87
2021/10/28 21:06:58;;;;;;;33.83;17.20;;;;;;;;;;4983758;28;20481;-87
2021/10/28 21:09:26;;;;;;;30.03;17.73;;;;;;;;;;4972594;28;20497;-87
2021/10/28 21:11:55;;;;;;;35.57;17.77;;;;;;;;;;4971638;28;20939;-87
2021/10/28 21:14:25;;;;;;;32.97;17.23;;;;;;;;;;4983159;28;20558;-87
2021/10/28 21:16:53;;;;;;;38.17;17.70;;;;;;;;;;4983407;28;20478;-88
2021/10/28 21:19:22;;;;;;;31.60;17.40;;;;;;;;;;4976730;28;20840;-87
2021/10/28 21:21:51;;;;;;;35.60;17.77;;;;;;;;;;4979129;28;20482;-87
2021/10/28 21:24:20;;;;;;;34.60;17.67;;;;;;;;;;4987974;28;20550;-87
2021/10/28 21:26:49;;;;;;;33.67;18.57;;;;;;;;;;4988564;28;20483;-87
2021/10/28 21:29:17;;;;;;;37.63;18.63;;;;;;;;;;4986565;28;20482;-87
2021/10/28 21:31:47;;;;;;;35.73;17.30;;;;;;;;;;4977230;28;20476;-87
2021/10/28 21:34:15;;;;;;;38.70;18.10;;;;;;;;;;4986937;28;21011;-87
2021/10/28 21:36:43;;;;;;;33.37;17.60;;;;;;;;;;4986103;28;20480;-87
2021/10/28 21:39:12;;;;;;;32.10;18.40;;;;;;;;;;4982567;28;20475;-88
2021/10/28 21:41:40;;;;;;;34.20;17.70;;;;;;;;;;4988088;28;20861;-87
2021/10/28 21:44:10;;;;;;;33.93;18.10;;;;;;;;;;4980909;28;20511;-87
2021/10/28 21:46:42;;;;;;;32.93;17.53;;;;;;;;;;4985008;28;20474;-87
2021/10/28 21:49:12;;;;;;;33.33;17.23;;;;;;;;;;4977489;28;21063;-87
2021/10/28 21:51:40;;;;;;;38.23;17.73;;;;;;;;;;4977686;28;20846;-87
2021/10/28 21:54:26;;;;;;;30.90;16.47;;;;;;;;;;4987559;28;20470;-87
2021/10/28 21:56:57;;;;;;;34.03;17.87;;;;;;;;;;4987351;28;20466;-87
2021/10/28 21:59:51;;;;;;;34.30;17.63;;;;;;;;;;5006641;28;20473;-87
2021/10/28 22:02:35;;;;;;;34.47;18.93;;;;;;;;;;4991220;28;20476;-87
2021/10/28 22:05:20;;;;;;;38.03;18.17;;;;;;;;;;5008995;28;20521;-88
2021/10/28 22:24:35;;;;;;;35.73;16.83;;;;;;;;;;4984052;28;20478;-87
2021/10/28 22:27:03;;;;;;;32.77;16.27;;;;;;;;;;4985661;28;20465;-87
2021/10/28 22:29:31;;;;;;;40.43;18.03;;;;;;;;;;4983110;28;20918;-87
2021/10/28 22:32:01;;;;;;;40.33;17.10;;;;;;;;;;4985854;28;20501;-87
2021/10/28 22:34:30;;;;;;;32.00;17.87;;;;;;;;;;4985445;28;20239;-87
2021/10/28 22:37:06;;;;;;;27.15;15.73;;;;;;;;;;4983140;28;20485;-88
2021/10/28 22:39:52;;;;;;;35.03;18.43;;;;;;;;;;4986699;28;20869;-87
2021/10/28 22:42:20;;;;;;;39.25;19.35;;;;;;;;;;4983774;28;20482;-87
2021/10/28 22:44:49;;;;;;;31.83;17.50;;;;;;;;;;4973811;28;20600;-87
2021/10/28 22:47:17;;;;;;;38.93;18.80;;;;;;;;;;4978173;28;20469;-87
2021/10/28 22:49:46;;;;;;;36.10;17.93;;;;;;;;;;4977030;28;20951;-87
2021/10/28 22:52:17;;;;;;;39.70;19.40;;;;;;;;;;4982520;28;20482;-87
2021/10/28 22:54:45;;;;;;;34.42;17.52;;;;;;;;;;4976592;28;21175;-87
2021/10/28 22:57:18;;;;;;;42.50;20.33;;;;;;;;;;4983064;28;20752;-87
2021/10/28 22:59:47;;;;;;;33.77;17.30;;;;;;;;;;4988044;28;20521;-87
2021/10/28 23:02:28;;;;;;;35.23;18.77;;;;;;;;;;4981926;28;20510;-87
2021/10/28 23:05:15;;;;;;;37.70;17.47;;;;;;;;;;4982695;28;20470;-88
2021/10/28 23:08:14;;;;;;;36.27;18.60;;;;;;;;;;4987922;28;20476;-87